createdAt,value
2018-03-01T00:01:23.550Z,36.40
2018-03-01T00:03:57.462Z,37.10
2018-03-01T00:06:31.321Z,36.30
2018-03-01T00:09:05.514Z,35.90
2018-03-01T00:11:39.434Z,36.70
2018-03-01T00:14:14.189Z,36.40
2018-03-01T00:16:48.262Z,36.40
2018-03-01T00:19:22.734Z,36.20
2018-03-01T00:21:57.835Z,36.80
2018-03-01T00:24:31.622Z,36.70
2018-03-01T00:27:05.388Z,37.10
2018-03-01T00:29:39.132Z,37.40
2018-03-01T00:32:14.311Z,37.40
2018-03-01T00:34:48.553Z,37.40
2018-03-01T00:37:22.395Z,37.10
2018-03-01T00:39:56.134Z,37.30
2018-03-01T00:42:30.653Z,35.80
2018-03-01T00:45:04.662Z,35.80
2018-03-01T00:47:39.425Z,37.50
2018-03-01T00:50:13.693Z,36.80
2018-03-01T00:52:48.091Z,37.60
2018-03-01T00:55:22.004Z,36.90
2018-03-01T00:57:55.697Z,36.00
2018-03-01T01:00:31.058Z,36.50
2018-03-01T01:03:05.430Z,36.50
2018-03-01T01:05:39.794Z,37.00
2018-03-01T01:08:13.792Z,38.30
2018-03-01T01:10:48.387Z,36.20
2018-03-01T01:13:22.386Z,36.30
2018-03-01T01:15:57.905Z,36.90
2018-03-01T01:18:32.653Z,37.10
2018-03-01T01:21:07.358Z,36.50
2018-03-01T01:23:41.518Z,36.30
2018-03-01T01:26:16.101Z,37.60
2018-03-01T01:28:50.512Z,37.60
2018-03-01T01:31:25.822Z,36.60
2018-03-01T01:33:59.796Z,36.50
2018-03-01T01:36:34.407Z,37.10
2018-03-01T01:39:08.330Z,37.50
2018-03-01T01:41:42.329Z,37.40
2018-03-01T01:44:16.998Z,36.90
2018-03-01T01:46:51.699Z,37.20
2018-03-01T01:49:26.299Z,37.30
2018-03-01T01:52:00.988Z,37.90
2018-03-01T01:54:35.209Z,37.90
2018-03-01T01:57:10.740Z,36.90
2018-03-01T01:59:44.911Z,36.80
2018-03-01T02:02:18.808Z,37.40
2018-03-01T02:04:53.590Z,37.10
2018-03-01T02:07:27.339Z,37.10
2018-03-01T02:10:02.337Z,37.30
2018-03-01T02:12:36.086Z,37.30
2018-03-01T02:15:09.936Z,37.80
2018-03-01T02:17:44.585Z,37.20
2018-03-01T02:20:18.466Z,36.90
2018-03-01T02:22:52.468Z,38.10
2018-03-01T02:25:27.165Z,37.50
2018-03-01T02:28:01.034Z,37.30
2018-03-01T02:30:36.510Z,37.20
2018-03-01T02:33:10.574Z,37.10
2018-03-01T02:35:44.568Z,37.40
2018-03-01T02:38:19.942Z,37.80
2018-03-01T02:40:53.889Z,37.70
2018-03-01T02:43:27.842Z,37.50
2018-03-01T02:46:01.746Z,37.80
2018-03-01T02:48:35.595Z,36.90
2018-03-01T02:51:10.125Z,36.80
2018-03-01T02:53:44.015Z,36.80
2018-03-01T02:56:18.272Z,37.60
2018-03-01T02:58:52.666Z,38.10
2018-03-01T03:01:26.506Z,37.20
2018-03-01T03:04:00.482Z,37.00
2018-03-01T03:06:35.242Z,37.00
2018-03-01T03:09:09.018Z,37.60
2018-03-01T03:11:43.630Z,37.20
2018-03-01T03:14:18.442Z,37.10
2018-03-01T03:16:52.662Z,37.00
2018-03-01T03:19:27.975Z,35.90
2018-03-01T03:22:01.964Z,35.70
2018-03-01T03:24:35.609Z,37.10
2018-03-01T03:27:10.229Z,36.40
2018-03-01T03:29:44.574Z,36.40
2018-03-01T03:32:19.302Z,37.80
2018-03-01T03:34:53.166Z,36.70
2018-03-01T03:37:27.114Z,35.90
2018-03-01T03:40:01.721Z,36.80
2018-03-01T03:42:35.892Z,36.80
2018-03-01T03:45:09.640Z,36.50
2018-03-01T03:47:43.417Z,36.60
2018-03-01T03:50:17.115Z,36.20
2018-03-01T03:52:50.787Z,36.20
2018-03-01T03:55:24.642Z,37.00
2018-03-01T03:57:58.513Z,36.70
2018-03-01T04:00:32.354Z,36.20
2018-03-01T04:03:06.161Z,36.50
2018-03-01T04:05:40.725Z,37.00
2018-03-01T04:08:15.352Z,37.10
2018-03-01T04:10:49.066Z,36.90
2018-03-01T04:13:23.565Z,37.50
2018-03-01T04:15:57.381Z,37.40
2018-03-01T04:18:32.086Z,36.50
2018-03-01T04:21:07.595Z,36.70
2018-03-01T04:23:41.609Z,36.60
2018-03-01T04:26:16.962Z,36.70
2018-03-01T04:28:50.962Z,36.70
2018-03-01T04:31:24.599Z,37.80
2018-03-01T04:33:58.410Z,36.50
2018-03-01T04:36:32.333Z,37.30
2018-03-01T04:39:06.111Z,36.40
2018-03-01T04:41:41.342Z,35.90
2018-03-01T04:44:15.623Z,35.90
2018-03-01T04:46:50.019Z,36.80
2018-03-01T04:49:24.929Z,37.10
2018-03-01T04:51:59.720Z,36.30
2018-03-01T04:54:33.877Z,36.40
2018-03-01T04:57:07.961Z,36.40
2018-03-01T04:59:41.739Z,37.00
2018-03-01T05:02:16.279Z,37.30
2018-03-01T05:04:50.421Z,37.20
2018-03-01T05:07:25.118Z,38.80
2018-03-01T05:09:59.805Z,38.30
2018-03-01T05:12:33.801Z,38.10
2018-03-01T05:15:09.243Z,38.20
2018-03-01T05:17:43.861Z,38.20
2018-03-01T05:20:17.794Z,37.80
2018-03-01T05:22:51.573Z,36.80
2018-03-01T05:25:26.141Z,37.50
2018-03-01T05:28:00.106Z,37.50
2018-03-01T05:30:34.048Z,38.10
2018-03-01T05:33:07.955Z,38.20
2018-03-01T05:35:41.873Z,37.80
2018-03-01T05:38:15.920Z,39.00
2018-03-01T05:40:51.487Z,37.20
2018-03-01T05:43:25.412Z,36.90
2018-03-01T05:45:59.141Z,37.60
2018-03-01T05:48:34.503Z,36.50
2018-03-01T05:51:09.267Z,37.10
2018-03-01T05:53:43.330Z,36.70
2018-03-01T05:56:16.995Z,37.30
2018-03-01T05:58:50.774Z,37.00
2018-03-01T06:01:25.319Z,36.90
2018-03-01T06:03:59.305Z,36.80
2018-03-01T06:06:33.361Z,37.30
2018-03-01T06:09:07.914Z,37.10
2018-03-01T06:11:42.676Z,38.20
2018-03-01T06:14:17.416Z,37.40
2018-03-01T06:16:51.427Z,37.30
2018-03-01T06:19:26.090Z,37.90
2018-03-01T06:21:59.889Z,37.00
2018-03-01T06:24:33.753Z,37.30
2018-03-01T06:27:07.570Z,37.80
2018-03-01T06:29:41.389Z,38.50
2018-03-01T06:32:15.993Z,37.70
2018-03-01T06:34:49.929Z,37.60
2018-03-01T06:37:24.523Z,37.60
2018-03-01T06:39:58.830Z,36.70
2018-03-01T06:42:33.314Z,37.70
2018-03-01T06:45:07.954Z,36.60
2018-03-01T06:47:42.918Z,39.20
2018-03-01T06:50:16.867Z,39.10
2018-03-01T06:52:50.633Z,39.10
2018-03-01T06:55:24.466Z,37.80
2018-03-01T06:57:59.038Z,36.80
2018-03-01T07:00:32.736Z,37.40
2018-03-01T07:03:06.805Z,37.30
2018-03-01T07:05:41.550Z,37.10
2018-03-01T07:08:15.316Z,38.00
2018-03-01T07:10:49.016Z,37.50
2018-03-01T07:13:22.749Z,36.50
2018-03-01T07:15:57.407Z,36.10
2018-03-01T07:18:32.176Z,37.10
2018-03-01T07:21:06.197Z,37.10
2018-03-01T07:23:40.918Z,37.10
2018-03-01T07:26:14.685Z,37.50
2018-03-01T07:28:50.164Z,38.00
2018-03-01T07:31:24.196Z,37.90
2018-03-01T07:33:57.978Z,37.50
2018-03-01T07:36:31.729Z,37.10
2018-03-01T07:39:05.534Z,36.40
2018-03-01T07:41:39.966Z,36.80
2018-03-01T07:44:13.948Z,36.80
2018-03-01T07:46:47.715Z,37.70
2018-03-01T07:49:22.393Z,36.30
2018-03-01T07:51:56.358Z,36.30
2018-03-01T07:54:30.198Z,36.50
2018-03-01T07:57:03.862Z,35.70
2018-03-01T07:59:38.517Z,35.70
2018-03-01T08:02:13.278Z,36.20
2018-03-01T08:04:47.276Z,36.10
2018-03-01T08:07:21.714Z,35.80
2018-03-01T08:09:55.870Z,35.00
2018-03-01T08:12:29.582Z,35.60
2018-03-01T08:15:04.091Z,37.00
2018-03-01T08:17:38.774Z,36.30
2018-03-01T08:20:12.947Z,36.20
2018-03-01T08:22:47.436Z,36.90
2018-03-01T08:25:22.113Z,35.50
2018-03-01T08:27:56.799Z,36.40
2018-03-01T08:30:30.602Z,35.50
2018-03-01T08:33:05.171Z,34.60
2018-03-01T08:35:38.926Z,35.20
2018-03-01T08:38:13.582Z,33.80
2018-03-01T08:40:48.120Z,35.30
2018-03-01T08:43:22.319Z,34.40
2018-03-01T08:45:56.738Z,34.30
2018-03-01T08:48:31.410Z,32.90
2018-03-01T08:51:05.575Z,32.90
2018-03-01T08:53:39.630Z,34.00
2018-03-01T08:56:13.404Z,34.30
2018-03-01T08:58:47.295Z,33.90
2018-03-01T09:01:21.144Z,34.10
2018-03-01T09:03:54.882Z,33.40
2018-03-01T09:06:29.528Z,33.40
2018-03-01T09:09:03.284Z,33.30
2018-03-01T09:11:38.250Z,32.80
2018-03-01T09:14:13.625Z,32.70
2018-03-01T09:16:47.744Z,32.60
2018-03-01T09:19:21.652Z,32.20
2018-03-01T09:21:56.140Z,31.20
2018-03-01T09:24:30.046Z,31.20
2018-03-01T09:27:03.993Z,30.10
2018-03-01T09:29:38.773Z,29.50
2018-03-01T09:32:13.452Z,28.10
2018-03-01T09:34:47.257Z,28.40
2018-03-01T09:37:20.936Z,29.10
2018-03-01T09:39:54.952Z,28.20
2018-03-01T09:42:29.131Z,27.20
2018-03-01T09:45:03.644Z,27.90
2018-03-01T09:47:37.384Z,29.10
2018-03-01T09:50:11.454Z,28.50
2018-03-01T09:52:45.206Z,29.30
2018-03-01T09:55:18.958Z,28.60
2018-03-01T09:57:52.722Z,28.70
2018-03-01T10:00:26.649Z,29.10
2018-03-01T10:03:00.611Z,29.50
2018-03-01T10:05:35.433Z,29.90
2018-03-01T10:08:10.784Z,29.60
2018-03-01T10:10:44.781Z,29.60
2018-03-01T10:13:18.606Z,29.90
2018-03-01T10:15:52.535Z,29.10
2018-03-01T10:18:26.319Z,29.00
2018-03-01T10:21:00.034Z,29.40
2018-03-01T10:23:33.927Z,29.70
2018-03-01T10:26:08.425Z,29.20
2018-03-01T10:28:42.498Z,29.20
2018-03-01T10:31:17.156Z,29.70
2018-03-01T10:33:50.922Z,29.90
2018-03-01T10:36:24.719Z,29.20
2018-03-01T10:38:59.528Z,29.40
2018-03-01T10:41:34.599Z,28.60
2018-03-01T10:44:09.179Z,28.50
2018-03-01T10:46:44.605Z,28.90
2018-03-01T10:49:19.462Z,29.30
2018-03-01T10:51:53.472Z,28.80
2018-03-01T10:54:27.379Z,29.00
2018-03-01T10:57:01.199Z,29.00
2018-03-01T10:59:34.835Z,28.40
2018-03-01T11:02:08.435Z,27.60
2018-03-01T11:04:42.242Z,28.20
2018-03-01T11:07:15.946Z,28.00
2018-03-01T11:09:49.708Z,28.50
2018-03-01T11:12:24.470Z,27.20
2018-03-01T11:15:00.182Z,27.50
2018-03-01T11:17:34.810Z,27.50
2018-03-01T11:20:09.663Z,27.00
2018-03-01T11:22:44.025Z,27.40
2018-03-01T11:25:18.170Z,27.30
2018-03-01T11:27:52.558Z,27.10
2018-03-01T11:30:26.745Z,27.10
2018-03-01T11:33:01.298Z,27.50
2018-03-01T11:35:35.579Z,27.40
2018-03-01T11:38:09.282Z,27.30
2018-03-01T11:40:43.061Z,26.90
2018-03-01T11:43:17.774Z,26.90
2018-03-01T11:45:51.730Z,27.30
2018-03-01T11:48:25.555Z,27.10
2018-03-01T11:50:59.352Z,27.00
2018-03-01T11:53:33.877Z,27.30
2018-03-01T11:56:07.944Z,27.30
2018-03-01T11:58:41.771Z,27.80
2018-03-01T12:01:15.630Z,27.20
2018-03-01T12:03:49.342Z,27.00
2018-03-01T12:06:23.089Z,27.10
2018-03-01T12:08:56.859Z,27.50
2018-03-01T12:11:30.696Z,26.90
2018-03-01T12:14:04.548Z,26.80
2018-03-01T12:16:39.991Z,26.70
2018-03-01T12:19:14.597Z,26.60
2018-03-01T12:21:48.581Z,26.60
2018-03-01T12:24:22.287Z,27.10
2018-03-01T12:26:56.102Z,26.80
2018-03-01T12:29:29.831Z,26.60
2018-03-01T12:32:04.421Z,26.80
2018-03-01T12:34:38.398Z,26.80
2018-03-01T12:37:12.059Z,26.60
2018-03-01T12:39:45.673Z,26.80
2018-03-01T12:42:19.546Z,27.00
2018-03-01T12:44:53.304Z,26.30
2018-03-01T12:47:27.111Z,26.30
2018-03-01T12:50:00.950Z,26.30
2018-03-01T12:52:34.764Z,26.70
2018-03-01T12:55:09.295Z,26.40
2018-03-01T12:57:44.150Z,27.00
2018-03-01T13:00:19.626Z,26.10
2018-03-01T13:02:54.558Z,26.20
2018-03-01T13:08:32.022Z,26.30
2018-03-01T13:11:07.420Z,26.50
2018-03-01T13:13:41.522Z,26.50
2018-03-01T13:16:15.281Z,26.30
2018-03-01T13:18:49.098Z,26.60
2018-03-01T13:21:22.786Z,26.60
2018-03-01T13:23:56.577Z,27.40
2018-03-01T13:26:30.202Z,27.20
2018-03-01T13:29:03.879Z,28.00
2018-03-01T13:31:41.263Z,27.50
2018-03-01T13:34:20.943Z,27.50
2018-03-01T13:36:55.299Z,26.60
2018-03-01T13:39:29.206Z,27.50
2018-03-01T13:42:03.817Z,27.20
2018-03-01T13:44:38.499Z,26.80
2018-03-01T13:47:13.210Z,26.80
2018-03-01T13:49:47.020Z,26.60
2018-03-01T13:52:20.831Z,27.00
2018-03-01T13:54:54.597Z,26.80
2018-03-01T13:57:28.401Z,26.60
2018-03-01T14:00:02.715Z,26.50
2018-03-01T14:02:36.942Z,26.50
2018-03-01T14:05:10.901Z,25.80
2018-03-01T14:08:01.368Z,26.10
2018-03-01T14:10:35.665Z,25.70
2018-03-01T14:13:12.052Z,25.20
2018-03-01T14:15:46.855Z,26.10
2018-03-01T14:18:35.530Z,26.00
2018-03-01T14:21:15.446Z,25.50
2018-03-01T14:23:55.361Z,26.30
2018-03-01T14:29:37.832Z,25.80
2018-03-01T14:32:12.274Z,26.00
2018-03-01T14:34:47.670Z,26.00
2018-03-01T14:37:21.794Z,25.90
2018-03-01T14:39:55.617Z,26.40
2018-03-01T14:42:29.354Z,25.50
2018-03-01T14:45:03.384Z,25.90
2018-03-01T14:47:38.066Z,25.70
2018-03-01T14:50:12.424Z,25.40
2018-03-01T14:52:47.724Z,25.30
2018-03-01T14:55:22.298Z,25.80
2018-03-01T14:57:56.401Z,25.80
2018-03-01T15:00:30.213Z,25.40
2018-03-01T15:03:05.076Z,26.70
2018-03-01T15:05:39.895Z,27.20
2018-03-01T15:08:13.981Z,27.10
2018-03-01T15:10:47.973Z,26.10
2018-03-01T15:13:21.772Z,25.80
2018-03-01T15:15:55.721Z,26.90
2018-03-01T15:18:30.212Z,26.20
2018-03-01T15:21:04.094Z,26.20
2018-03-01T15:23:38.234Z,25.90
2018-03-01T15:26:13.502Z,26.60
2018-03-01T15:28:47.772Z,26.60
2018-03-01T15:31:22.278Z,25.70
2018-03-01T15:33:57.322Z,26.00
2018-03-01T15:36:31.337Z,26.00
2018-03-01T15:39:05.066Z,26.30
2018-03-01T15:41:38.860Z,26.00
2018-03-01T15:44:14.192Z,25.60
2018-03-01T15:46:49.290Z,25.90
2018-03-01T15:49:23.253Z,25.80
2018-03-01T15:51:57.085Z,26.20
2018-03-01T15:54:31.581Z,26.30
2018-03-01T15:57:06.058Z,27.00
2018-03-01T15:59:40.921Z,25.70
2018-03-01T16:02:14.932Z,25.70
2018-03-01T16:04:49.047Z,26.20
2018-03-01T16:07:23.083Z,27.00
2018-03-01T16:09:57.119Z,26.50
2018-03-01T16:12:31.690Z,26.40
2018-03-01T16:15:05.694Z,26.60
2018-03-01T16:17:39.398Z,26.70
2018-03-01T16:20:13.606Z,25.70
2018-03-01T16:22:48.794Z,25.70
2018-03-01T16:25:23.587Z,25.70
2018-03-01T16:27:58.364Z,25.90
2018-03-01T16:30:32.634Z,25.90
2018-03-01T16:33:06.518Z,26.40
2018-03-01T16:35:40.422Z,26.40
2018-03-01T16:38:14.936Z,26.40
2018-03-01T16:40:49.809Z,26.60
2018-03-01T16:43:23.896Z,26.60
2018-03-01T16:45:57.661Z,26.10
2018-03-01T16:48:32.987Z,26.60
2018-03-01T16:51:07.142Z,26.10
2018-03-01T16:53:40.835Z,26.50
2018-03-01T16:56:14.970Z,26.20
2018-03-01T16:58:49.707Z,26.50
2018-03-01T17:01:24.460Z,26.10
2018-03-01T17:03:58.675Z,26.30
2018-03-01T17:06:32.478Z,26.50
2018-03-01T17:09:07.361Z,26.80
2018-03-01T17:11:42.132Z,28.00
2018-03-01T17:14:15.778Z,26.50
2018-03-01T17:16:49.645Z,26.90
2018-03-01T17:19:25.109Z,27.00
2018-03-01T17:21:59.529Z,27.00
2018-03-01T17:24:33.437Z,26.80
2018-03-01T17:27:09.011Z,27.00
2018-03-01T17:29:42.941Z,27.60
2018-03-01T17:32:16.741Z,27.00
2018-03-01T17:34:51.515Z,27.20
2018-03-01T17:37:26.786Z,26.90
2018-03-01T17:40:02.526Z,27.30
2018-03-01T17:42:37.269Z,27.20
2018-03-01T17:45:11.537Z,27.40
2018-03-01T17:47:45.538Z,27.60
2018-03-01T17:50:20.555Z,27.50
2018-03-01T17:52:55.166Z,27.50
2018-03-01T17:55:29.281Z,27.40
2018-03-01T17:58:03.182Z,27.00
2018-03-01T18:00:37.014Z,27.00
2018-03-01T18:03:12.205Z,27.10
2018-03-01T18:05:46.683Z,27.00
2018-03-01T18:08:20.472Z,28.10
2018-03-01T18:10:55.079Z,28.50
2018-03-01T18:13:29.712Z,28.40
2018-03-01T18:16:03.715Z,28.40
2018-03-01T18:18:37.565Z,27.70
2018-03-01T18:21:12.126Z,28.10
2018-03-01T18:23:46.223Z,28.00
2018-03-01T18:26:21.025Z,28.10
2018-03-01T18:28:55.088Z,28.10
2018-03-01T18:31:29.715Z,27.90
2018-03-01T18:34:03.926Z,27.80
2018-03-01T18:36:38.468Z,28.20
2018-03-01T18:39:12.362Z,28.60
2018-03-01T18:41:47.186Z,29.10
2018-03-01T18:44:21.297Z,29.00
2018-03-01T18:46:55.690Z,29.70
2018-03-01T18:49:30.216Z,29.10
2018-03-01T18:52:04.524Z,29.00
2018-03-01T18:54:39.901Z,29.30
2018-03-01T18:57:13.930Z,29.20
2018-03-01T18:59:49.381Z,28.90
2018-03-01T19:02:23.385Z,28.90
2018-03-01T19:04:57.184Z,29.10
2018-03-01T19:07:31.986Z,29.70
2018-03-01T19:10:06.420Z,29.10
2018-03-01T19:12:40.761Z,28.40
2018-03-01T19:15:14.727Z,28.50
2018-03-01T19:17:48.472Z,28.40
2018-03-01T19:20:22.428Z,29.00
2018-03-01T19:22:57.190Z,29.60
2018-03-01T19:25:30.942Z,29.50
2018-03-01T19:28:04.761Z,29.10
2018-03-01T19:30:38.912Z,29.30
2018-03-01T19:33:13.574Z,28.70
2018-03-01T19:35:47.517Z,29.50
2018-03-01T19:38:21.255Z,30.00
2018-03-01T19:40:56.622Z,29.80
2018-03-01T19:43:31.711Z,29.90
2018-03-01T19:46:05.998Z,29.60
2018-03-01T19:48:40.115Z,28.80
2018-03-01T19:51:14.901Z,29.40
2018-03-01T19:53:49.220Z,29.50
2018-03-01T19:56:24.047Z,29.10
2018-03-01T19:58:58.760Z,29.00
2018-03-01T20:01:33.092Z,29.50
2018-03-01T20:04:07.509Z,29.10
2018-03-01T20:06:42.442Z,29.00
2018-03-01T20:09:16.302Z,29.00
2018-03-01T20:11:50.931Z,29.40
2018-03-01T20:14:24.911Z,29.40
2018-03-01T20:16:58.790Z,29.90
2018-03-01T20:19:32.882Z,30.00
2018-03-01T20:22:07.064Z,29.20
2018-03-01T20:24:41.803Z,29.50
2018-03-01T20:27:16.530Z,29.40
2018-03-01T20:29:51.175Z,30.10
2018-03-01T20:32:24.898Z,29.70
2018-03-01T20:34:59.798Z,30.00
2018-03-01T20:37:33.456Z,29.90
2018-03-01T20:40:07.534Z,29.90
2018-03-01T20:42:42.019Z,30.00
2018-03-01T20:48:05.983Z,29.70
2018-03-01T20:50:39.837Z,29.60
2018-03-01T20:53:13.709Z,30.00
2018-03-01T20:55:47.350Z,29.80
2018-03-01T20:58:22.042Z,30.60
2018-03-01T21:00:55.913Z,30.50
2018-03-01T21:03:29.641Z,30.40
2018-03-01T21:06:04.238Z,30.10
2018-03-01T21:08:39.075Z,30.80
2018-03-01T21:11:13.886Z,30.10
2018-03-01T21:13:48.213Z,30.00
2018-03-01T21:16:22.038Z,30.50
2018-03-01T21:18:56.500Z,30.30
2018-03-01T21:21:30.385Z,30.20
2018-03-01T21:24:04.263Z,29.80
2018-03-01T21:26:37.974Z,29.90
2018-03-01T21:29:11.848Z,30.20
2018-03-01T21:31:46.479Z,30.50
2018-03-01T21:34:20.584Z,30.30
2018-03-01T21:36:55.013Z,30.80
2018-03-01T21:39:28.990Z,30.80
2018-03-01T21:42:03.683Z,31.50
2018-03-01T21:44:38.269Z,32.40
2018-03-01T21:47:12.886Z,31.20
2018-03-01T21:49:47.945Z,31.80
2018-03-01T21:52:22.039Z,31.70
2018-03-01T21:54:55.990Z,31.00
2018-03-01T21:57:30.563Z,31.40
2018-03-01T22:00:05.035Z,31.30
2018-03-01T22:02:40.182Z,30.60
2018-03-01T22:05:14.140Z,30.60
2018-03-01T22:07:48.544Z,30.40
2018-03-01T22:10:24.118Z,31.90
2018-03-01T22:12:58.722Z,31.10
2018-03-01T22:15:33.612Z,30.80
2018-03-01T22:18:15.954Z,30.80
2018-03-01T22:20:51.897Z,31.30
2018-03-01T22:23:26.510Z,31.90
2018-03-01T22:26:01.494Z,31.40
2018-03-01T22:28:36.706Z,31.50
2018-03-01T22:31:11.121Z,31.50
2018-03-01T22:33:44.830Z,31.50
2018-03-01T22:36:18.878Z,32.10
2018-03-01T22:38:52.642Z,32.70
2018-03-01T22:41:26.497Z,31.40
2018-03-01T22:44:00.218Z,30.80
2018-03-01T22:46:35.121Z,31.30
2018-03-01T22:49:09.133Z,30.90
2018-03-01T22:51:43.641Z,31.70
2018-03-01T22:54:19.062Z,31.10
2018-03-01T22:56:53.556Z,31.10
2018-03-01T22:59:28.234Z,31.50
2018-03-01T23:02:02.134Z,32.00
2018-03-01T23:04:35.829Z,32.20
2018-03-01T23:07:09.680Z,32.20
2018-03-01T23:09:44.223Z,31.90
2018-03-01T23:12:18.014Z,31.90
2018-03-01T23:14:51.822Z,31.50
2018-03-01T23:17:25.587Z,31.90
2018-03-01T23:19:59.966Z,31.90
2018-03-01T23:22:34.151Z,32.00
2018-03-01T23:25:08.003Z,31.80
2018-03-01T23:27:42.300Z,31.90
2018-03-01T23:30:17.697Z,31.80
2018-03-01T23:32:52.350Z,31.80
2018-03-01T23:35:26.126Z,31.70
2018-03-01T23:37:59.912Z,31.70
2018-03-01T23:40:33.982Z,31.50
2018-03-01T23:43:08.868Z,33.10
2018-03-01T23:45:43.775Z,32.70
2018-03-01T23:48:17.781Z,32.70
2018-03-01T23:50:52.319Z,34.10
2018-03-01T23:53:26.521Z,34.10
2018-03-01T23:56:00.641Z,32.80
2018-03-01T23:58:35.493Z,34.50
